Time;durP1;ratioP1;P1;durP2;ratioP2;P2;SDS_P1;SDS_P2;PMS_P1;PMS_P2;Temp;Humidity;BMP_temperature;BMP_pressure;BME280_temperature;BME280_humidity;BME280_pressure;Samples;Min_cycle;Max_cycle;Signal;HPM_P1;HPM_P2
2021/12/02 00:01:26;;;;;;;;;;;;;;;11.01;100.00;99698.13;5055080;28;19921;-59
2021/12/02 00:03:53;;;;;;;;;;;;;;;10.82;100.00;99693.84;5063624;28;19920;-60
2021/12/02 00:06:19;;;;;;;;;;;;;;;11.08;100.00;99697.25;5073791;28;19928;-60
2021/12/02 00:08:46;;;;;;;;;;;;;;;11.01;100.00;99698.13;5058988;28;19956;-59
2021/12/02 00:11:12;;;;;;;;;;;;;;;11.01;100.00;99697.31;5054960;28;19917;-61
2021/12/02 00:14:06;;;;;;;;;;;;;;;10.66;100.00;99696.13;5055014;28;19917;-61
2021/12/02 00:21:41;;;;;;;;;;;;;;;10.54;100.00;99692.53;5087149;28;19962;-60
2021/12/02 00:24:08;;;;;;;;;;;;;;;10.81;100.00;99700.25;5054536;28;19917;-60
2021/12/02 00:26:35;;;;;;;;;;;;;;;10.27;100.00;99719.53;5055249;28;19962;-59
2021/12/02 00:29:02;;;;;;;;;;;;;;;10.44;100.00;99725.97;5054832;28;19939;-62
2021/12/02 00:31:29;;;;;;;;;;;;;;;10.17;100.00;99731.53;5054716;28;19916;-58
2021/12/02 00:33:57;;;;;;;;;;;;;;;10.29;100.00;99744.16;5054572;28;20330;-60
2021/12/02 00:36:26;;;;;;;;;;;;;;;9.96;100.00;99730.06;5054882;28;19916;-60
2021/12/02 00:38:53;;;;;;;;;;;;;;;10.55;100.00;99731.59;5054432;28;19961;-60
2021/12/02 00:41:20;;;;;;;;;;;;;;;10.68;100.00;99730.63;5054691;28;19917;-58
2021/12/02 00:43:47;;;;;;;;;;;;;;;10.62;100.00;99721.66;5054158;28;19916;-60
2021/12/02 00:46:15;;;;;;;;;;;;;;;10.64;100.00;99713.41;5054413;28;19916;-59
2021/12/02 00:48:42;;;;;;;;;;;;;;;10.21;100.00;99715.88;5054327;28;20003;-59
2021/12/02 00:51:08;;;;;;;;;;;;;;;10.60;100.00;99713.84;5054241;28;19917;-59
2021/12/02 00:53:34;;;;;;;;;;;;;;;10.25;100.00;99709.03;5054021;28;20003;-60
2021/12/02 00:56:02;;;;;;;;;;;;;;;10.31;100.00;99710.84;5053502;28;20353;-59
2021/12/02 00:58:28;;;;;;;;;;;;;;;10.35;100.00;99713.06;5053344;28;20246;-59
2021/12/02 01:00:55;;;;;;;;;;;;;;;10.42;100.00;99709.34;5052615;28;20011;-61
2021/12/02 01:03:21;;;;;;;;;;;;;;;9.91;100.00;99711.22;5053932;28;19952;-59
2021/12/02 01:05:47;;;;;;;;;;;;;;;10.16;100.00;99713.06;5053968;28;19917;-59
2021/12/02 01:08:12;;;;;;;;;;;;;;;10.13;100.00;99719.63;5086906;28;19923;-59
2021/12/02 01:10:40;;;;;;;;;;;;;;;10.04;100.00;99720.97;5053833;28;19917;-61
2021/12/02 01:13:05;;;;;;;;;;;;;;;10.16;100.00;99716.56;5054194;28;20376;-59
2021/12/02 01:15:31;;;;;;;;;;;;;;;10.06;100.00;99710.88;5053880;28;19923;-59
2021/12/02 01:17:57;;;;;;;;;;;;;;;10.31;100.00;99710.03;5053749;28;19964;-60
2021/12/02 01:20:22;;;;;;;;;;;;;;;9.82;100.00;99708.00;5054050;28;19913;-60
2021/12/02 01:22:49;;;;;;;;;;;;;;;10.42;100.00;99717.34;5052603;28;19963;-60
2021/12/02 01:25:17;;;;;;;;;;;;;;;10.24;100.00;99719.97;5057007;28;19924;-64
2021/12/02 01:27:45;;;;;;;;;;;;;;;10.23;100.00;99737.84;5057078;28;19916;-60
2021/12/02 01:30:11;;;;;;;;;;;;;;;10.33;100.00;99740.84;5053569;28;19916;-60
2021/12/02 01:32:38;;;;;;;;;;;;;;;10.63;100.00;99739.34;5087095;28;19920;-60
2021/12/02 01:35:04;;;;;;;;;;;;;;;10.57;100.00;99745.56;5052694;28;19923;-60
2021/12/02 01:37:30;;;;;;;;;;;;;;;10.43;100.00;99740.38;5054592;28;19920;-59
2021/12/02 01:39:56;;;;;;;;;;;;;;;10.31;100.00;99742.91;5054026;28;19916;-59
2021/12/02 01:42:27;;;;;;;;;;;;;;;10.66;100.00;99744.25;5052750;28;19923;-59
2021/12/02 01:44:54;;;;;;;;;;;;;;;10.78;100.00;99741.63;5053871;28;19967;-61
2021/12/02 01:47:21;;;;;;;;;;;;;;;10.66;100.00;99738.88;5053978;28;19917;-60
2021/12/02 01:49:51;;;;;;;;;;;;;;;10.89;100.00;99745.41;5054076;28;19913;-63
2021/12/02 01:52:19;;;;;;;;;;;;;;;10.69;100.00;99740.28;5053650;28;20270;-60
2021/12/02 01:54:45;;;;;;;;;;;;;;;10.86;100.00;99749.34;5054018;28;19921;-61
2021/12/02 01:57:22;;;;;;;;;;;;;;;10.79;100.00;99743.28;5057735;28;20110;-57
2021/12/02 01:59:51;;;;;;;;;;;;;;;10.90;100.00;99747.84;5056617;28;19916;-60
2021/12/02 02:02:19;;;;;;;;;;;;;;;10.72;100.00;99750.53;5056419;28;19961;-60
2021/12/02 02:04:46;;;;;;;;;;;;;;;10.78;100.00;99757.69;5056348;28;19921;-59
2021/12/02 02:07:12;;;;;;;;;;;;;;;10.68;100.00;99758.19;5057203;28;19920;-60
2021/12/02 02:09:38;;;;;;;;;;;;;;;10.87;100.00;99756.31;5057263;28;19913;-60
2021/12/02 02:12:05;;;;;;;;;;;;;;;10.98;100.00;99749.41;5056943;28;20446;-61
2021/12/02 02:14:31;;;;;;;;;;;;;;;10.85;100.00;99755.75;5057383;28;19927;-58
2021/12/02 02:17:00;;;;;;;;;;;;;;;10.99;100.00;99755.59;5057964;28;20019;-61
2021/12/02 02:19:30;;;;;;;;;;;;;;;10.88;100.00;99746.47;5056840;28;19916;-58
2021/12/02 02:21:56;;;;;;;;;;;;;;;10.88;100.00;99749.13;5057149;28;19960;-59
2021/12/02 02:24:22;;;;;;;;;;;;;;;10.59;100.00;99748.81;5057143;28;19967;-60
2021/12/02 02:26:47;;;;;;;;;;;;;;;10.23;100.00;99758.41;5057157;28;19913;-60
2021/12/02 02:29:14;;;;;;;;;;;;;;;10.71;100.00;99751.56;5089223;28;19925;-60
2021/12/02 02:31:41;;;;;;;;;;;;;;;10.88;100.00;99751.81;5055757;28;19921;-60
2021/12/02 02:34:07;;;;;;;;;;;;;;;10.80;100.00;99746.75;5057324;28;19960;-60
2021/12/02 02:36:34;;;;;;;;;;;;;;;10.81;100.00;99741.19;5089110;28;19971;-60
2021/12/02 02:39:02;;;;;;;;;;;;;;;10.84;100.00;99748.75;5056476;28;20426;-59
2021/12/02 02:41:34;;;;;;;;;;;;;;;10.87;100.00;99750.19;5056848;28;19948;-58
2021/12/02 02:44:00;;;;;;;;;;;;;;;10.84;100.00;99750.59;5056781;28;19923;-61
2021/12/02 02:46:33;;;;;;;;;;;;;;;10.92;100.00;99761.00;5062577;28;20399;-64
2021/12/02 02:49:00;;;;;;;;;;;;;;;10.75;100.00;99769.63;5065172;28;19924;-60
2021/12/02 02:51:26;;;;;;;;;;;;;;;10.66;100.00;99760.28;5057720;28;19928;-59
2021/12/02 02:53:54;;;;;;;;;;;;;;;10.43;100.00;99771.59;5056394;28;19995;-61
2021/12/02 02:56:21;;;;;;;;;;;;;;;10.38;100.00;99774.94;5056791;28;19976;-61
2021/12/02 03:06:32;;;;;;;;;;;;;;;10.76;100.00;99757.88;5055658;28;19939;-61
2021/12/02 03:09:06;;;;;;;;;;;;;;;10.94;100.00;99753.59;5056491;28;19921;-61
2021/12/02 03:11:40;;;;;;;;;;;;;;;10.69;100.00;99745.63;5056198;28;19916;-60
2021/12/02 03:14:16;;;;;;;;;;;;;;;10.57;100.00;99743.72;5056303;28;20011;-59
2021/12/02 03:16:44;;;;;;;;;;;;;;;10.83;100.00;99743.63;5056575;28;19916;-60
2021/12/02 03:19:30;;;;;;;;;;;;;;;10.63;100.00;99733.16;5055863;28;19927;-61
2021/12/02 03:21:56;;;;;;;;;;;;;;;10.57;100.00;99740.22;5056018;28;19916;-61
2021/12/02 03:24:22;;;;;;;;;;;;;;;10.50;100.00;99734.13;5055868;28;19928;-61
2021/12/02 03:26:48;;;;;;;;;;;;;;;10.10;100.00;99744.13;5055856;28;19923;-60
2021/12/02 03:29:14;;;;;;;;;;;;;;;10.36;100.00;99755.59;5056042;28;20258;-61
2021/12/02 03:31:39;;;;;;;;;;;;;;;10.35;100.00;99737.94;5056042;28;20311;-60
2021/12/02 03:34:07;;;;;;;;;;;;;;;10.45;100.00;99748.16;5055836;28;19920;-61
2021/12/02 03:36:32;;;;;;;;;;;;;;;10.39;100.00;99747.16;5054440;28;19916;-59
2021/12/02 03:38:57;;;;;;;;;;;;;;;10.16;100.00;99755.78;5054556;28;20280;-61
2021/12/02 03:41:24;;;;;;;;;;;;;;;10.01;100.00;99743.59;5056324;28;19920;-62
2021/12/02 03:43:50;;;;;;;;;;;;;;;10.01;100.00;99742.78;5056754;28;19924;-63
2021/12/02 03:46:18;;;;;;;;;;;;;;;9.87;100.00;99742.88;5055019;28;20304;-60
2021/12/02 03:48:43;;;;;;;;;;;;;;;9.80;100.00;99752.81;5056610;28;19972;-59
2021/12/02 03:51:09;;;;;;;;;;;;;;;9.85;100.00;99744.94;5088655;28;19967;-60
2021/12/02 03:53:35;;;;;;;;;;;;;;;9.91;100.00;99759.28;5055880;28;19920;-62
2021/12/02 03:56:01;;;;;;;;;;;;;;;9.86;100.00;99764.47;5054523;28;19966;-60
2021/12/02 03:58:27;;;;;;;;;;;;;;;9.80;100.00;99773.31;5055242;28;19971;-60
2021/12/02 04:00:52;;;;;;;;;;;;;;;9.74;100.00;99770.50;5054089;28;20033;-60
2021/12/02 04:03:18;;;;;;;;;;;;;;;9.70;100.00;99774.63;5070386;28;20008;-59
2021/12/02 04:05:43;;;;;;;;;;;;;;;9.97;100.00;99766.44;5056220;28;19921;-60
2021/12/02 04:08:11;;;;;;;;;;;;;;;10.27;100.00;99764.94;5057640;28;19916;-60
2021/12/02 04:10:37;;;;;;;;;;;;;;;10.08;100.00;99767.56;5055960;28;19917;-60
2021/12/02 04:15:40;;;;;;;;;;;;;;;9.86;100.00;99749.25;5087445;28;19917;-60
2021/12/02 04:18:06;;;;;;;;;;;;;;;9.96;100.00;99748.75;5053820;28;19974;-58
2021/12/02 04:20:32;;;;;;;;;;;;;;;9.94;100.00;99758.06;5054813;28;19912;-60
2021/12/02 04:22:57;;;;;;;;;;;;;;;10.02;100.00;99765.78;5054674;28;19924;-60
2021/12/02 04:25:23;;;;;;;;;;;;;;;9.82;100.00;99771.28;5053666;28;19923;-62
2021/12/02 04:27:50;;;;;;;;;;;;;;;10.02;100.00;99777.28;5053691;28;19924;-60
2021/12/02 04:30:17;;;;;;;;;;;;;;;10.03;100.00;99786.13;5054380;28;19917;-62
2021/12/02 04:32:42;;;;;;;;;;;;;;;10.08;100.00;99790.81;5054787;28;19922;-60
2021/12/02 04:35:08;;;;;;;;;;;;;;;10.23;100.00;99793.16;5053771;28;19925;-60
2021/12/02 04:37:34;;;;;;;;;;;;;;;10.09;100.00;99795.91;5070452;28;19921;-60
2021/12/02 04:39:59;;;;;;;;;;;;;;;10.24;100.00;99800.13;5055064;28;20008;-60
2021/12/02 04:42:25;;;;;;;;;;;;;;;9.94;100.00;99808.78;5055703;28;20265;-58
2021/12/02 04:44:51;;;;;;;;;;;;;;;10.18;100.00;99802.66;5054846;28;19962;-60
2021/12/02 04:47:16;;;;;;;;;;;;;;;9.93;100.00;99797.28;5054152;28;19921;-60
2021/12/02 04:49:42;;;;;;;;;;;;;;;10.06;100.00;99791.00;5053009;28;20276;-60
2021/12/02 04:52:08;;;;;;;;;;;;;;;10.13;100.00;99786.44;5054027;28;19923;-59
2021/12/02 04:54:33;;;;;;;;;;;;;;;10.13;100.00;99789.09;5053951;28;19924;-60
2021/12/02 04:56:59;;;;;;;;;;;;;;;9.89;100.00;99788.06;5069497;28;19920;-60
2021/12/02 04:59:24;;;;;;;;;;;;;;;10.07;100.00;99792.66;5053959;28;20300;-59
2021/12/02 05:01:50;;;;;;;;;;;;;;;10.02;100.00;99779.13;5086477;28;19917;-60
2021/12/02 05:04:15;;;;;;;;;;;;;;;9.79;100.00;99787.72;5053917;28;20401;-59
2021/12/02 05:06:40;;;;;;;;;;;;;;;9.78;100.00;99786.91;5054189;28;19960;-59
2021/12/02 05:09:06;;;;;;;;;;;;;;;9.82;100.00;99798.00;5054140;28;20367;-59
2021/12/02 05:11:31;;;;;;;;;;;;;;;9.82;100.00;99793.44;5086560;28;19928;-59
2021/12/02 05:13:57;;;;;;;;;;;;;;;10.00;100.00;99802.56;5054469;28;20011;-60
2021/12/02 05:16:22;;;;;;;;;;;;;;;10.13;100.00;99810.47;5054104;28;20434;-61
2021/12/02 05:18:47;;;;;;;;;;;;;;;10.11;100.00;99823.22;5054160;28;20372;-61
2021/12/02 05:21:13;;;;;;;;;;;;;;;10.06;100.00;99833.75;5069187;28;20270;-61
2021/12/02 05:23:38;;;;;;;;;;;;;;;10.01;100.00;99838.94;5054180;28;19953;-60
2021/12/02 05:26:04;;;;;;;;;;;;;;;10.00;100.00;99822.06;5054021;28;19913;-60
2021/12/02 05:28:29;;;;;;;;;;;;;;;9.75;100.00;99824.72;5057228;28;20411;-58
2021/12/02 05:30:55;;;;;;;;;;;;;;;10.01;100.00;99838.94;5056229;28;20372;-60
2021/12/02 05:33:20;;;;;;;;;;;;;;;9.41;100.00;99834.75;5086518;28;19928;-60
2021/12/02 05:35:46;;;;;;;;;;;;;;;9.76;100.00;99835.19;5053116;28;20021;-59
2021/12/02 05:38:11;;;;;;;;;;;;;;;9.76;100.00;99837.03;5053748;28;20011;-60
2021/12/02 05:40:37;;;;;;;;;;;;;;;9.64;100.00;99828.06;5053736;28;19916;-59
2021/12/02 05:43:02;;;;;;;;;;;;;;;9.72;100.00;99825.16;5053895;28;20047;-60
2021/12/02 05:45:28;;;;;;;;;;;;;;;9.61;100.00;99819.44;5052301;28;19917;-60
2021/12/02 05:47:53;;;;;;;;;;;;;;;9.15;100.00;99809.81;5053463;28;20014;-60
2021/12/02 05:50:19;;;;;;;;;;;;;;;9.30;100.00;99806.88;5053493;28;19924;-60
2021/12/02 05:52:44;;;;;;;;;;;;;;;9.31;100.00;99820.03;5085941;28;19916;-59
2021/12/02 05:55:10;;;;;;;;;;;;;;;9.47;100.00;99802.69;5085866;28;19921;-59
2021/12/02 05:57:35;;;;;;;;;;;;;;;9.43;100.00;99806.81;5053371;28;19921;-59
2021/12/02 06:00:00;;;;;;;;;;;;;;;9.53;100.00;99809.03;5052274;28;19943;-60
2021/12/02 06:02:27;;;;;;;;;;;;;;;9.43;100.00;99816.66;5053667;28;19925;-61
2021/12/02 06:04:53;;;;;;;;;;;;;;;9.15;100.00;99829.31;5053454;28;19921;-60
2021/12/02 06:07:19;;;;;;;;;;;;;;;9.42;100.00;99836.38;5054178;28;19923;-59
2021/12/02 06:09:44;;;;;;;;;;;;;;;9.27;100.00;99840.16;5085919;28;20003;-60
2021/12/02 06:12:10;;;;;;;;;;;;;;;9.37;100.00;99854.88;5053632;28;19927;-61
2021/12/02 06:14:35;;;;;;;;;;;;;;;8.90;100.00;99839.84;5057945;28;19921;-59
2021/12/02 06:17:01;;;;;;;;;;;;;;;8.96;100.00;99828.34;5055118;28;19921;-59
2021/12/02 06:19:26;;;;;;;;;;;;;;;9.18;100.00;99836.06;5053181;28;19916;-57
2021/12/02 06:21:51;;;;;;;;;;;;;;;9.35;100.00;99838.28;5053121;28;20023;-61
2021/12/02 06:24:17;;;;;;;;;;;;;;;9.69;100.00;99846.94;5053352;28;20376;-59
2021/12/02 06:26:42;;;;;;;;;;;;;;;9.97;100.00;99848.41;5086279;28;19935;-61
2021/12/02 06:29:08;;;;;;;;;;;;;;;9.85;100.00;99846.44;5053185;28;19970;-60
2021/12/02 06:31:34;;;;;;;;;;;;;;;9.87;100.00;99838.22;5053409;28;20376;-60
2021/12/02 06:33:59;;;;;;;;;;;;;;;9.71;100.00;99834.22;5053049;28;19990;-61
2021/12/02 06:36:24;;;;;;;;;;;;;;;9.72;100.00;99841.19;5086182;28;20368;-60
2021/12/02 06:38:50;;;;;;;;;;;;;;;9.33;100.00;99836.63;5052963;28;19920;-59
2021/12/02 06:41:16;;;;;;;;;;;;;;;9.35;100.00;99830.25;5086635;28;19928;-60
2021/12/02 06:43:41;;;;;;;;;;;;;;;9.28;100.00;99831.13;5056577;28;20448;-60
2021/12/02 06:46:06;;;;;;;;;;;;;;;9.15;100.00;99829.31;5072817;28;20007;-60
2021/12/02 06:48:32;;;;;;;;;;;;;;;9.18;100.00;99830.72;5073311;28;20396;-61
2021/12/02 06:50:57;;;;;;;;;;;;;;;9.25;100.00;99836.88;5067779;28;19920;-59
2021/12/02 06:53:23;;;;;;;;;;;;;;;9.01;100.00;99835.72;5057481;28;19920;-60
2021/12/02 06:55:48;;;;;;;;;;;;;;;8.95;100.00;99836.56;5056570;28;20407;-59
2021/12/02 06:58:13;;;;;;;;;;;;;;;8.85;100.00;99829.81;5056991;28;20434;-60
2021/12/02 07:00:39;;;;;;;;;;;;;;;9.12;100.00;99837.75;5056846;28;19927;-60
2021/12/02 07:03:04;;;;;;;;;;;;;;;9.23;100.00;99838.94;5088633;28;19916;-61
2021/12/02 07:05:32;;;;;;;;;;;;;;;9.22;100.00;99852.47;5056383;28;19920;-58
2021/12/02 07:07:57;;;;;;;;;;;;;;;8.83;100.00;99855.06;5054996;28;19917;-60
2021/12/02 07:10:25;;;;;;;;;;;;;;;9.21;100.00;99861.53;5088472;28;19927;-60
2021/12/02 07:12:54;;;;;;;;;;;;;;;9.17;100.00;99861.94;5055944;28;19917;-59
2021/12/02 07:15:24;;;;;;;;;;;;;;;9.35;100.00;99872.97;5056231;28;19916;-61
2021/12/02 07:17:54;;;;;;;;;;;;;;;9.01;100.00;99879.22;5056927;28;19923;-60
2021/12/02 07:20:19;;;;;;;;;;;;;;;9.25;100.00;99874.22;5056306;28;20285;-60
2021/12/02 07:22:44;;;;;;;;;;;;;;;9.22;100.00;99874.63;5088086;28;19917;-59
2021/12/02 07:25:10;;;;;;;;;;;;;;;9.26;100.00;99878.53;5055787;28;20428;-60
2021/12/02 07:27:36;;;;;;;;;;;;;;;9.41;100.00;99877.44;5054595;28;19927;-60
2021/12/02 07:30:01;;;;;;;;;;;;;;;9.08;100.00;99878.38;5056464;28;20368;-60
2021/12/02 07:32:32;;;;;;;;;;;;;;;9.20;100.00;99870.56;5055620;28;20015;-60
2021/12/02 07:35:00;;;;;;;;;;;;;;;9.16;100.00;99875.47;5055763;28;19917;-59
2021/12/02 07:37:26;;;;;;;;;;;;;;;9.22;100.00;99885.31;5071028;28;19924;-60
2021/12/02 07:39:51;;;;;;;;;;;;;;;9.21;100.00;99889.00;5054336;28;19921;-59
2021/12/02 07:42:17;;;;;;;;;;;;;;;9.17;100.00;99893.94;5056251;28;19917;-60
2021/12/02 07:44:43;;;;;;;;;;;;;;;9.04;100.00;99894.81;5054624;28;19917;-60
2021/12/02 07:47:08;;;;;;;;;;;;;;;9.12;100.00;99904.44;5054823;28;19916;-60
2021/12/02 07:49:34;;;;;;;;;;;;;;;9.28;100.00;99911.16;5055806;28;19928;-60
2021/12/02 07:52:00;;;;;;;;;;;;;;;9.29;100.00;99926.13;5089175;28;20007;-60
2021/12/02 07:54:26;;;;;;;;;;;;;;;9.53;100.00;99929.16;5055931;28;19925;-59
2021/12/02 07:56:52;;;;;;;;;;;;;;;9.25;100.00;99932.09;5055622;28;19924;-61
2021/12/02 07:59:18;;;;;;;;;;;;;;;9.70;100.00;99939.38;5055017;28;19913;-60
2021/12/02 08:01:44;;;;;;;;;;;;;;;9.28;100.00;99948.50;5056090;28;19917;-60
2021/12/02 08:04:09;;;;;;;;;;;;;;;9.43;100.00;99950.94;5056582;28;19921;-57
2021/12/02 08:06:34;;;;;;;;;;;;;;;9.35;100.00;99953.84;5056461;28;19998;-60
2021/12/02 08:09:00;;;;;;;;;;;;;;;9.36;100.00;99950.16;5055774;28;20010;-60
2021/12/02 08:11:25;;;;;;;;;;;;;;;9.49;100.00;99951.13;5087202;28;19927;-60
2021/12/02 08:13:54;;;;;;;;;;;;;;;9.60;100.00;99961.97;5059825;28;19916;-61
2021/12/02 08:16:19;;;;;;;;;;;;;;;9.51;100.00;99965.91;5060514;28;19959;-60
2021/12/02 08:18:45;;;;;;;;;;;;;;;9.67;100.00;99972.63;5072500;28;20369;-60
2021/12/02 08:21:10;;;;;;;;;;;;;;;9.40;100.00;99974.53;5055004;28;19928;-60
2021/12/02 08:23:35;;;;;;;;;;;;;;;9.30;100.00;99978.47;5054755;28;19952;-60
2021/12/02 08:26:01;;;;;;;;;;;;;;;9.60;100.00;99991.34;5087528;28;19921;-60
2021/12/02 08:28:28;;;;;;;;;;;;;;;9.81;100.00;100000.09;5086978;28;19931;-59
2021/12/02 08:30:54;;;;;;;;;;;;;;;9.87;100.00;100004.59;5055576;28;19936;-59
2021/12/02 08:33:20;;;;;;;;;;;;;;;9.60;100.00;100004.69;5087280;28;20357;-60
2021/12/02 08:35:46;;;;;;;;;;;;;;;9.71;100.00;100003.22;5086967;28;19928;-57
2021/12/02 08:38:13;;;;;;;;;;;;;;;9.90;100.00;100014.84;5054577;28;20380;-60
2021/12/02 08:40:39;;;;;;;;;;;;;;;9.77;100.00;100012.25;5054768;28;20058;-59
2021/12/02 08:43:06;;;;;;;;;;;;;;;9.72;100.00;100014.72;5055130;28;19963;-60
2021/12/02 08:45:33;;;;;;;;;;;;;;;9.59;100.00;100013.72;5054454;28;20284;-59
2021/12/02 08:48:00;;;;;;;;;;;;;;;9.33;100.00;100010.06;5052852;28;20363;-59
2021/12/02 08:50:25;;;;;;;;;;;;;;;9.36;100.00;100005.34;5069671;28;19974;-61
2021/12/02 08:52:51;;;;;;;;;;;;;;;9.70;100.00;100008.78;5054068;28;19921;-60
2021/12/02 08:55:17;;;;;;;;;;;;;;;9.55;100.00;100019.69;5054340;28;20289;-60
2021/12/02 08:57:43;;;;;;;;;;;;;;;9.97;100.00;100025.50;5053933;28;19913;-60
2021/12/02 09:00:10;;;;;;;;;;;;;;;10.08;100.00;100026.69;5054448;28;19916;-60
2021/12/02 09:02:35;;;;;;;;;;;;;;;9.88;100.00;100032.94;5086471;28;19921;-60
2021/12/02 09:05:01;;;;;;;;;;;;;;;9.74;100.00;100037.50;5054092;28;20011;-59
2021/12/02 09:07:26;;;;;;;;;;;;;;;10.03;100.00;100042.56;5054381;28;19916;-60
2021/12/02 09:09:52;;;;;;;;;;;;;;;10.11;100.00;100036.97;5054512;28;19917;-60
2021/12/02 09:12:17;;;;;;;;;;;;;;;10.25;100.00;100036.91;5054076;28;19916;-60
2021/12/02 09:14:43;;;;;;;;;;;;;;;9.63;100.00;100032.81;5054993;28;20353;-60
2021/12/02 09:17:08;;;;;;;;;;;;;;;10.46;100.00;100044.66;5054076;28;19917;-60
2021/12/02 09:19:34;;;;;;;;;;;;;;;11.28;100.00;100045.69;5053187;28;19951;-59
2021/12/02 09:21:59;;;;;;;;;;;;;;;11.76;100.00;100057.59;5054866;28;20003;-61
2021/12/02 09:24:25;;;;;;;;;;;;;;;12.72;100.00;100053.56;5054128;28;19983;-60
2021/12/02 09:26:51;;;;;;;;;;;;;;;11.44;100.00;100054.22;5052607;28;19920;-60
2021/12/02 09:29:17;;;;;;;;;;;;;;;11.21;100.00;100061.00;5053036;28;19916;-61
2021/12/02 09:31:43;;;;;;;;;;;;;;;12.23;100.00;100050.91;5086255;28;20426;-60
2021/12/02 09:34:08;;;;;;;;;;;;;;;14.08;100.00;100055.59;5054240;28;19916;-61
2021/12/02 09:36:34;;;;;;;;;;;;;;;15.18;98.31;100065.38;5064321;28;19925;-59
2021/12/02 09:38:59;;;;;;;;;;;;;;;15.49;89.87;100065.03;5057557;28;19959;-59
2021/12/02 09:41:25;;;;;;;;;;;;;;;16.25;86.54;100065.50;5054203;28;20006;-59
2021/12/02 09:43:50;;;;;;;;;;;;;;;17.10;69.83;100066.91;5052872;28;19916;-58
2021/12/02 09:46:16;;;;;;;;;;;;;;;17.29;67.37;100078.91;5054037;28;19912;-62
2021/12/02 09:48:42;;;;;;;;;;;;;;;17.52;67.04;100076.91;5053927;28;19917;-60
2021/12/02 09:51:13;;;;;;;;;;;;;;;17.75;62.94;100075.69;5054001;28;19921;-61
2021/12/02 09:53:55;;;;;;;;;;;;;;;17.88;62.43;100079.03;5054213;28;20392;-61
2021/12/02 09:56:26;;;;;;;;;;;;;;;18.27;58.06;100081.34;5054020;28;19928;-60
2021/12/02 09:58:54;;;;;;;;;;;;;;;18.08;65.82;100078.31;5054173;28;19920;-60
2021/12/02 10:01:23;;;;;;;;;;;;;;;17.10;68.44;100078.50;5053895;28;20399;-60
2021/12/02 10:03:55;;;;;;;;;;;;;;;17.84;62.78;100091.41;5053663;28;19924;-60
2021/12/02 10:06:22;;;;;;;;;;;;;;;18.81;55.96;100079.31;5054212;28;19916;-61
2021/12/02 10:11:34;;;;;;;;;;;;;;;17.75;59.68;100075.69;5053554;28;19948;-61
2021/12/02 10:14:22;;;;;;;;;;;;;;;17.06;69.33;100075.50;5052017;28;19959;-60
2021/12/02 10:16:48;;;;;;;;;;;;;;;18.93;64.12;100087.19;5070493;28;19916;-61
2021/12/02 10:19:28;;;;;;;;;;;;;;;19.32;58.64;100089.38;5057473;28;20451;-61
2021/12/02 10:24:22;;;;;;;;;;;;;;;19.66;54.88;100106.94;5058689;28;19954;-61
2021/12/02 10:26:50;;;;;;;;;;;;;;;19.95;53.97;100109.06;5056041;28;19920;-61
2021/12/02 10:29:17;;;;;;;;;;;;;;;19.31;56.01;100109.44;5057791;28;19921;-60
2021/12/02 10:31:47;;;;;;;;;;;;;;;18.44;59.21;100112.81;5056977;28;19916;-60
2021/12/02 10:34:13;;;;;;;;;;;;;;;16.67;79.07;100105.38;5056060;28;19927;-61
2021/12/02 10:36:45;;;;;;;;;;;;;;;14.84;92.74;100107.63;5057073;28;20004;-60
2021/12/02 10:39:22;;;;;;;;;;;;;;;14.54;100.00;100124.81;5056839;28;19924;-59
2021/12/02 10:41:56;;;;;;;;;;;;;;;13.24;100.00;100124.63;5090403;28;19920;-61
2021/12/02 10:44:24;;;;;;;;;;;;;;;13.95;100.00;100128.44;5057268;28;19917;-60
2021/12/02 10:46:52;;;;;;;;;;;;;;;13.97;100.00;100135.22;5056671;28;20012;-60
2021/12/02 10:49:19;;;;;;;;;;;;;;;14.19;100.00;100135.41;5057449;28;20284;-59
2021/12/02 10:51:50;;;;;;;;;;;;;;;14.87;100.00;100137.53;5056842;28;20408;-59
2021/12/02 10:54:27;;;;;;;;;;;;;;;15.81;98.60;100137.19;5055765;28;20384;-60
2021/12/02 10:56:57;;;;;;;;;;;;;;;18.02;85.94;100139.69;5064349;28;19916;-60
2021/12/02 10:59:23;;;;;;;;;;;;;;;20.46;58.03;100143.34;5064732;28;19917;-60
2021/12/02 11:01:49;;;;;;;;;;;;;;;20.43;54.38;100138.47;5091533;28;19967;-61
2021/12/02 11:04:14;;;;;;;;;;;;;;;19.68;59.17;100131.09;5056342;28;20011;-62
2021/12/02 11:06:43;;;;;;;;;;;;;;;17.46;68.59;100123.91;5057032;28;19920;-61
2021/12/02 11:09:28;;;;;;;;;;;;;;;16.56;82.12;100120.63;5055778;28;19924;-60
2021/12/02 11:12:12;;;;;;;;;;;;;;;15.33;96.75;100093.63;5056438;28;19970;-59
2021/12/02 11:15:01;;;;;;;;;;;;;;;13.62;100.00;100071.56;5056936;28;20225;-60
2021/12/02 11:17:33;;;;;;;;;;;;;;;13.32;100.00;100064.41;5049865;28;19923;-61
2021/12/02 11:19:59;;;;;;;;;;;;;;;12.13;100.00;100067.53;5056498;28;19916;-59
2021/12/02 11:22:26;;;;;;;;;;;;;;;12.53;100.00;100078.81;5088729;28;20379;-61
2021/12/02 11:24:51;;;;;;;;;;;;;;;12.57;100.00;100099.59;5055223;28;19964;-61
2021/12/02 11:27:27;;;;;;;;;;;;;;;12.84;100.00;100103.75;5055502;28;19921;-61
2021/12/02 11:29:54;;;;;;;;;;;;;;;12.89;100.00;100106.56;5056011;28;19967;-60
2021/12/02 11:32:29;;;;;;;;;;;;;;;12.88;100.00;100123.72;5055275;28;19918;-60
2021/12/02 11:35:05;;;;;;;;;;;;;;;11.91;100.00;100120.75;5088869;28;20383;-60
2021/12/02 11:37:35;;;;;;;;;;;;;;;12.58;100.00;100130.72;5055175;28;19927;-59
2021/12/02 11:40:03;;;;;;;;;;;;;;;12.51;100.00;100140.69;5055737;28;19923;-61
2021/12/02 11:42:28;;;;;;;;;;;;;;;12.72;100.00;100147.47;5055775;28;20387;-60
2021/12/02 11:44:54;;;;;;;;;;;;;;;12.57;100.00;100139.00;5055766;28;19921;-61
2021/12/02 11:47:19;;;;;;;;;;;;;;;12.15;100.00;100158.47;5056120;28;20011;-61
2021/12/02 11:49:45;;;;;;;;;;;;;;;12.80;100.00;100158.91;5056002;28;19935;-61
2021/12/02 11:52:10;;;;;;;;;;;;;;;12.73;100.00;100157.16;5055567;28;19924;-62
2021/12/02 11:54:39;;;;;;;;;;;;;;;12.16;100.00;100179.66;5054917;28;19916;-59
2021/12/02 11:57:04;;;;;;;;;;;;;;;13.02;100.00;100173.47;5054617;28;19927;-60
2021/12/02 11:59:29;;;;;;;;;;;;;;;12.88;100.00;100169.31;5055726;28;19921;-61
2021/12/02 12:01:56;;;;;;;;;;;;;;;13.46;100.00;100175.16;5094402;28;19924;-59
2021/12/02 12:04:21;;;;;;;;;;;;;;;14.07;100.00;100180.34;5065673;28;19978;-59
2021/12/02 12:06:52;;;;;;;;;;;;;;;15.20;93.79;100179.09;5062997;28;19924;-59
2021/12/02 12:09:18;;;;;;;;;;;;;;;15.08;94.56;100177.50;5055628;28;20003;-60
2021/12/02 12:11:45;;;;;;;;;;;;;;;14.93;93.10;100176.16;5056690;28;19917;-60
2021/12/02 12:14:12;;;;;;;;;;;;;;;15.27;86.96;100187.00;5057548;28;19939;-60
2021/12/02 12:16:42;;;;;;;;;;;;;;;15.55;87.91;100182.63;5061484;28;19917;-60
2021/12/02 12:19:17;;;;;;;;;;;;;;;15.99;76.16;100189.25;5063944;28;19975;-60
2021/12/02 12:21:44;;;;;;;;;;;;;;;15.94;70.61;100191.88;5064013;28;20380;-60
2021/12/02 12:24:10;;;;;;;;;;;;;;;16.97;68.09;100201.25;5061733;28;19960;-60
2021/12/02 12:26:40;;;;;;;;;;;;;;;17.24;66.04;100196.97;5056672;28;19924;-60
2021/12/02 12:29:06;;;;;;;;;;;;;;;17.53;62.14;100210.19;5056026;28;19921;-60
2021/12/02 12:31:34;;;;;;;;;;;;;;;19.00;54.33;100212.41;5087438;28;19959;-62
2021/12/02 12:34:01;;;;;;;;;;;;;;;20.14;48.50;100222.47;5054324;28;20237;-61
2021/12/02 12:36:36;;;;;;;;;;;;;;;20.39;48.86;100224.31;5055257;28;19943;-60
2021/12/02 12:39:18;;;;;;;;;;;;;;;19.97;46.34;100217.34;5054134;28;20057;-61
2021/12/02 12:41:43;;;;;;;;;;;;;;;19.86;48.75;100222.78;5087190;28;20343;-60
2021/12/02 12:44:09;;;;;;;;;;;;;;;21.07;42.90;100233.00;5055062;28;19916;-60
2021/12/02 12:46:35;;;;;;;;;;;;;;;22.08;40.54;100239.03;5054841;28;19927;-61
2021/12/02 12:49:18;;;;;;;;;;;;;;;21.81;42.01;100243.09;5054287;28;19971;-61
2021/12/02 12:51:53;;;;;;;;;;;;;;;22.16;41.10;100251.22;5055013;28;19956;-60
2021/12/02 12:54:20;;;;;;;;;;;;;;;21.98;37.93;100261.72;5053207;28;19917;-60
2021/12/02 12:56:46;;;;;;;;;;;;;;;21.78;38.56;100285.28;5054525;28;19998;-61
2021/12/02 12:59:13;;;;;;;;;;;;;;;22.45;38.41;100280.31;5086666;28;19916;-61